sensor_id;sensor_type;location;lat;lon;timestamp;P1;durP1;ratioP1;P2;durP2;ratioP2
65863;SDS011;52639;51.180;20.460;2023-03-21T00:02:21;60.53;;;29.30;;
65863;SDS011;52639;51.180;20.460;2023-03-21T00:06:25;66.63;;;30.15;;
65863;SDS011;52639;51.180;20.460;2023-03-21T00:10:28;72.00;;;31.13;;
65863;SDS011;52639;51.180;20.460;2023-03-21T00:14:31;64.18;;;29.67;;
65863;SDS011;52639;51.180;20.460;2023-03-21T00:18:35;61.50;;;28.25;;
65863;SDS011;52639;51.180;20.460;2023-03-21T00:22:42;54.90;;;26.00;;
65863;SDS011;52639;51.180;20.460;2023-03-21T00:26:44;51.08;;;24.55;;
65863;SDS011;52639;51.180;20.460;2023-03-21T00:30:48;48.90;;;24.73;;
65863;SDS011;52639;51.180;20.460;2023-03-21T00:34:53;57.55;;;26.10;;
65863;SDS011;52639;51.180;20.460;2023-03-21T00:38:56;58.08;;;26.63;;
65863;SDS011;52639;51.180;20.460;2023-03-21T00:43:00;58.65;;;25.10;;
65863;SDS011;52639;51.180;20.460;2023-03-21T00:47:03;56.40;;;27.13;;
65863;SDS011;52639;51.180;20.460;2023-03-21T00:51:11;61.47;;;28.75;;
65863;SDS011;52639;51.180;20.460;2023-03-21T00:55:17;64.47;;;28.52;;
65863;SDS011;52639;51.180;20.460;2023-03-21T00:59:20;62.35;;;25.77;;
65863;SDS011;52639;51.180;20.460;2023-03-21T01:03:23;58.95;;;26.35;;
65863;SDS011;52639;51.180;20.460;2023-03-21T01:07:28;70.93;;;29.50;;
65863;SDS011;52639;51.180;20.460;2023-03-21T01:11:31;70.60;;;29.20;;
65863;SDS011;52639;51.180;20.460;2023-03-21T01:15:34;68.13;;;29.00;;
65863;SDS011;52639;51.180;20.460;2023-03-21T01:19:37;60.67;;;27.55;;
65863;SDS011;52639;51.180;20.460;2023-03-21T01:23:42;68.93;;;27.02;;
65863;SDS011;52639;51.180;20.460;2023-03-21T01:27:46;55.85;;;25.17;;
65863;SDS011;52639;51.180;20.460;2023-03-21T01:31:48;59.53;;;25.13;;
65863;SDS011;52639;51.180;20.460;2023-03-21T01:35:51;61.53;;;26.15;;
65863;SDS011;52639;51.180;20.460;2023-03-21T01:39:56;60.78;;;24.35;;
65863;SDS011;52639;51.180;20.460;2023-03-21T01:43:58;58.05;;;24.25;;
65863;SDS011;52639;51.180;20.460;2023-03-21T01:48:01;60.97;;;25.63;;
65863;SDS011;52639;51.180;20.460;2023-03-21T01:52:06;58.33;;;25.02;;
65863;SDS011;52639;51.180;20.460;2023-03-21T01:56:15;56.38;;;24.80;;
65863;SDS011;52639;51.180;20.460;2023-03-21T02:00:22;69.10;;;26.23;;
65863;SDS011;52639;51.180;20.460;2023-03-21T02:04:29;66.28;;;26.13;;
65863;SDS011;52639;51.180;20.460;2023-03-21T02:08:32;67.75;;;26.45;;
65863;SDS011;52639;51.180;20.460;2023-03-21T02:12:36;68.43;;;24.10;;
65863;SDS011;52639;51.180;20.460;2023-03-21T02:16:42;67.95;;;24.60;;
65863;SDS011;52639;51.180;20.460;2023-03-21T02:25:46;59.00;;;24.38;;
65863;SDS011;52639;51.180;20.460;2023-03-21T02:30:26;60.42;;;24.27;;
65863;SDS011;52639;51.180;20.460;2023-03-21T02:34:56;60.95;;;24.35;;
65863;SDS011;52639;51.180;20.460;2023-03-21T02:39:11;58.35;;;22.58;;
65863;SDS011;52639;51.180;20.460;2023-03-21T02:43:23;57.90;;;22.83;;
65863;SDS011;52639;51.180;20.460;2023-03-21T02:47:32;74.63;;;27.10;;
65863;SDS011;52639;51.180;20.460;2023-03-21T02:51:40;58.88;;;23.40;;
65863;SDS011;52639;51.180;20.460;2023-03-21T02:55:47;57.22;;;23.58;;
65863;SDS011;52639;51.180;20.460;2023-03-21T02:59:52;57.17;;;22.67;;
65863;SDS011;52639;51.180;20.460;2023-03-21T03:03:56;64.38;;;23.50;;
65863;SDS011;52639;51.180;20.460;2023-03-21T03:08:03;72.55;;;23.40;;
65863;SDS011;52639;51.180;20.460;2023-03-21T03:12:18;62.88;;;22.83;;
65863;SDS011;52639;51.180;20.460;2023-03-21T03:16:30;63.15;;;22.48;;
65863;SDS011;52639;51.180;20.460;2023-03-21T03:20:44;57.97;;;22.08;;
65863;SDS011;52639;51.180;20.460;2023-03-21T03:24:54;64.82;;;23.95;;
65863;SDS011;52639;51.180;20.460;2023-03-21T03:29:03;66.93;;;23.88;;
65863;SDS011;52639;51.180;20.460;2023-03-21T03:33:09;77.82;;;24.80;;
65863;SDS011;52639;51.180;20.460;2023-03-21T03:37:18;79.13;;;25.98;;
65863;SDS011;52639;51.180;20.460;2023-03-21T03:41:26;69.40;;;24.83;;
65863;SDS011;52639;51.180;20.460;2023-03-21T03:45:31;82.13;;;23.98;;
65863;SDS011;52639;51.180;20.460;2023-03-21T03:49:40;84.90;;;27.55;;
65863;SDS011;52639;51.180;20.460;2023-03-21T03:53:49;76.80;;;22.30;;
65863;SDS011;52639;51.180;20.460;2023-03-21T03:57:56;78.38;;;22.77;;
65863;SDS011;52639;51.180;20.460;2023-03-21T04:02:01;72.68;;;22.30;;
65863;SDS011;52639;51.180;20.460;2023-03-21T04:06:04;88.97;;;27.70;;
65863;SDS011;52639;51.180;20.460;2023-03-21T04:10:08;97.72;;;29.25;;
65863;SDS011;52639;51.180;20.460;2023-03-21T04:14:11;87.03;;;25.83;;
65863;SDS011;52639;51.180;20.460;2023-03-21T04:18:16;69.63;;;24.58;;
65863;SDS011;52639;51.180;20.460;2023-03-21T04:22:19;74.90;;;22.08;;
65863;SDS011;52639;51.180;20.460;2023-03-21T04:26:25;87.82;;;19.92;;
65863;SDS011;52639;51.180;20.460;2023-03-21T04:30:32;93.70;;;19.63;;
65863;SDS011;52639;51.180;20.460;2023-03-21T04:34:36;64.47;;;21.60;;
65863;SDS011;52639;51.180;20.460;2023-03-21T04:38:39;74.53;;;23.83;;
65863;SDS011;52639;51.180;20.460;2023-03-21T04:42:43;77.55;;;28.30;;
65863;SDS011;52639;51.180;20.460;2023-03-21T04:46:46;80.90;;;27.45;;
65863;SDS011;52639;51.180;20.460;2023-03-21T04:50:51;66.53;;;21.60;;
65863;SDS011;52639;51.180;20.460;2023-03-21T04:54:54;70.93;;;21.27;;
65863;SDS011;52639;51.180;20.460;2023-03-21T04:58:57;70.20;;;21.40;;
65863;SDS011;52639;51.180;20.460;2023-03-21T05:03:01;66.35;;;22.63;;
65863;SDS011;52639;51.180;20.460;2023-03-21T05:07:06;66.70;;;23.63;;
65863;SDS011;52639;51.180;20.460;2023-03-21T05:11:09;69.65;;;22.20;;
65863;SDS011;52639;51.180;20.460;2023-03-21T05:15:12;60.65;;;21.75;;
65863;SDS011;52639;51.180;20.460;2023-03-21T05:19:15;64.03;;;19.38;;
65863;SDS011;52639;51.180;20.460;2023-03-21T05:23:20;68.35;;;24.27;;
65863;SDS011;52639;51.180;20.460;2023-03-21T05:27:25;68.57;;;26.13;;
65863;SDS011;52639;51.180;20.460;2023-03-21T05:31:37;66.70;;;22.88;;
65863;SDS011;52639;51.180;20.460;2023-03-21T05:35:40;61.28;;;23.05;;
65863;SDS011;52639;51.180;20.460;2023-03-21T05:39:44;54.03;;;20.42;;
65863;SDS011;52639;51.180;20.460;2023-03-21T05:43:47;67.95;;;22.70;;
65863;SDS011;52639;51.180;20.460;2023-03-21T05:47:50;53.10;;;20.85;;
65863;SDS011;52639;51.180;20.460;2023-03-21T05:51:53;51.25;;;17.38;;
65863;SDS011;52639;51.180;20.460;2023-03-21T05:55:58;55.38;;;18.52;;
65863;SDS011;52639;51.180;20.460;2023-03-21T06:00:00;53.60;;;20.98;;
65863;SDS011;52639;51.180;20.460;2023-03-21T06:04:04;59.40;;;20.45;;
65863;SDS011;52639;51.180;20.460;2023-03-21T06:08:07;50.40;;;18.73;;
65863;SDS011;52639;51.180;20.460;2023-03-21T06:12:12;48.42;;;18.27;;
65863;SDS011;52639;51.180;20.460;2023-03-21T06:16:16;55.42;;;20.35;;
65863;SDS011;52639;51.180;20.460;2023-03-21T06:20:19;61.72;;;24.27;;
65863;SDS011;52639;51.180;20.460;2023-03-21T06:24:22;67.72;;;26.48;;
65863;SDS011;52639;51.180;20.460;2023-03-21T06:28:27;61.13;;;23.33;;
65863;SDS011;52639;51.180;20.460;2023-03-21T06:32:31;46.53;;;20.13;;
65863;SDS011;52639;51.180;20.460;2023-03-21T06:36:33;50.42;;;22.00;;
65863;SDS011;52639;51.180;20.460;2023-03-21T06:40:36;52.40;;;21.08;;
65863;SDS011;52639;51.180;20.460;2023-03-21T06:44:41;42.75;;;19.40;;
65863;SDS011;52639;51.180;20.460;2023-03-21T06:48:45;42.40;;;18.25;;
65863;SDS011;52639;51.180;20.460;2023-03-21T06:52:48;39.67;;;17.13;;
65863;SDS011;52639;51.180;20.460;2023-03-21T06:56:51;38.85;;;18.85;;
65863;SDS011;52639;51.180;20.460;2023-03-21T07:00:58;39.63;;;19.60;;
65863;SDS011;52639;51.180;20.460;2023-03-21T07:05:01;42.67;;;20.50;;
65863;SDS011;52639;51.180;20.460;2023-03-21T07:09:04;39.83;;;19.38;;
65863;SDS011;52639;51.180;20.460;2023-03-21T07:13:08;36.97;;;18.50;;
65863;SDS011;52639;51.180;20.460;2023-03-21T07:17:12;38.92;;;18.40;;
65863;SDS011;52639;51.180;20.460;2023-03-21T07:21:15;36.00;;;17.38;;
65863;SDS011;52639;51.180;20.460;2023-03-21T07:25:18;35.35;;;18.30;;
65863;SDS011;52639;51.180;20.460;2023-03-21T07:29:21;38.60;;;18.77;;
65863;SDS011;52639;51.180;20.460;2023-03-21T07:33:26;31.70;;;15.98;;
65863;SDS011;52639;51.180;20.460;2023-03-21T07:37:29;34.38;;;18.15;;
65863;SDS011;52639;51.180;20.460;2023-03-21T07:41:32;30.02;;;15.10;;
65863;SDS011;52639;51.180;20.460;2023-03-21T07:45:35;34.72;;;16.80;;
65863;SDS011;52639;51.180;20.460;2023-03-21T07:49:40;31.92;;;15.52;;
65863;SDS011;52639;51.180;20.460;2023-03-21T07:53:42;34.53;;;16.15;;
65863;SDS011;52639;51.180;20.460;2023-03-21T07:57:48;32.83;;;17.10;;
65863;SDS011;52639;51.180;20.460;2023-03-21T08:01:52;35.88;;;17.58;;
65863;SDS011;52639;51.180;20.460;2023-03-21T08:05:57;41.03;;;17.98;;
65863;SDS011;52639;51.180;20.460;2023-03-21T08:10:01;41.15;;;17.92;;
65863;SDS011;52639;51.180;20.460;2023-03-21T08:14:04;39.40;;;18.63;;
65863;SDS011;52639;51.180;20.460;2023-03-21T08:18:07;36.85;;;17.25;;
65863;SDS011;52639;51.180;20.460;2023-03-21T08:22:12;38.70;;;17.75;;
65863;SDS011;52639;51.180;20.460;2023-03-21T08:26:14;37.83;;;16.95;;
65863;SDS011;52639;51.180;20.460;2023-03-21T08:30:19;53.25;;;21.17;;
65863;SDS011;52639;51.180;20.460;2023-03-21T08:34:23;40.40;;;18.23;;
65863;SDS011;52639;51.180;20.460;2023-03-21T08:38:28;48.95;;;21.02;;
65863;SDS011;52639;51.180;20.460;2023-03-21T08:42:33;41.20;;;17.92;;
65863;SDS011;52639;51.180;20.460;2023-03-21T08:46:37;37.65;;;17.25;;
65863;SDS011;52639;51.180;20.460;2023-03-21T08:50:39;42.38;;;17.35;;
65863;SDS011;52639;51.180;20.460;2023-03-21T08:54:44;41.58;;;18.80;;
65863;SDS011;52639;51.180;20.460;2023-03-21T08:58:48;33.22;;;16.90;;
65863;SDS011;52639;51.180;20.460;2023-03-21T09:02:51;35.90;;;16.10;;
65863;SDS011;52639;51.180;20.460;2023-03-21T09:06:54;39.25;;;17.90;;
65863;SDS011;52639;51.180;20.460;2023-03-21T09:10:58;34.50;;;14.95;;
65863;SDS011;52639;51.180;20.460;2023-03-21T09:15:02;33.47;;;15.30;;
65863;SDS011;52639;51.180;20.460;2023-03-21T09:19:05;37.20;;;15.73;;
65863;SDS011;52639;51.180;20.460;2023-03-21T09:23:09;25.00;;;12.98;;
65863;SDS011;52639;51.180;20.460;2023-03-21T09:27:15;28.63;;;13.23;;
65863;SDS011;52639;51.180;20.460;2023-03-21T09:31:22;24.40;;;12.70;;
65863;SDS011;52639;51.180;20.460;2023-03-21T09:35:26;30.77;;;17.40;;
65863;SDS011;52639;51.180;20.460;2023-03-21T09:39:29;28.70;;;12.82;;
65863;SDS011;52639;51.180;20.460;2023-03-21T09:43:38;25.13;;;12.25;;
65863;SDS011;52639;51.180;20.460;2023-03-21T09:47:49;24.55;;;12.20;;
65863;SDS011;52639;51.180;20.460;2023-03-21T09:51:54;16.25;;;8.48;;
65863;SDS011;52639;51.180;20.460;2023-03-21T09:55:57;16.33;;;9.18;;
65863;SDS011;52639;51.180;20.460;2023-03-21T10:00:06;17.65;;;9.73;;
65863;SDS011;52639;51.180;20.460;2023-03-21T10:04:22;19.98;;;10.73;;
65863;SDS011;52639;51.180;20.460;2023-03-21T10:08:27;28.23;;;11.68;;
65863;SDS011;52639;51.180;20.460;2023-03-21T10:12:36;20.08;;;10.52;;
65863;SDS011;52639;51.180;20.460;2023-03-21T10:16:41;18.10;;;10.43;;
65863;SDS011;52639;51.180;20.460;2023-03-21T10:20:45;22.38;;;11.10;;
65863;SDS011;52639;51.180;20.460;2023-03-21T10:24:48;15.23;;;8.90;;
65863;SDS011;52639;51.180;20.460;2023-03-21T10:28:51;22.80;;;11.80;;
65863;SDS011;52639;51.180;20.460;2023-03-21T10:32:59;23.50;;;12.35;;
65863;SDS011;52639;51.180;20.460;2023-03-21T10:37:09;23.90;;;11.82;;
65863;SDS011;52639;51.180;20.460;2023-03-21T10:41:15;20.77;;;11.55;;
65863;SDS011;52639;51.180;20.460;2023-03-21T10:45:20;25.95;;;11.82;;
65863;SDS011;52639;51.180;20.460;2023-03-21T10:49:27;21.40;;;11.13;;
65863;SDS011;52639;51.180;20.460;2023-03-21T10:53:34;23.38;;;12.60;;
65863;SDS011;52639;51.180;20.460;2023-03-21T10:57:41;20.20;;;10.70;;
65863;SDS011;52639;51.180;20.460;2023-03-21T11:01:47;21.67;;;10.48;;
65863;SDS011;52639;51.180;20.460;2023-03-21T11:05:54;20.10;;;10.95;;
65863;SDS011;52639;51.180;20.460;2023-03-21T11:10:11;17.08;;;9.73;;
65863;SDS011;52639;51.180;20.460;2023-03-21T11:14:25;18.60;;;9.60;;
65863;SDS011;52639;51.180;20.460;2023-03-21T11:18:38;19.70;;;9.38;;
65863;SDS011;52639;51.180;20.460;2023-03-21T11:22:46;23.33;;;11.07;;
65863;SDS011;52639;51.180;20.460;2023-03-21T11:26:50;18.15;;;9.23;;
65863;SDS011;52639;51.180;20.460;2023-03-21T11:30:54;19.58;;;11.13;;
65863;SDS011;52639;51.180;20.460;2023-03-21T11:34:59;19.13;;;10.35;;
65863;SDS011;52639;51.180;20.460;2023-03-21T11:39:21;19.15;;;10.90;;
65863;SDS011;52639;51.180;20.460;2023-03-21T11:43:31;22.88;;;11.20;;
65863;SDS011;52639;51.180;20.460;2023-03-21T11:47:37;25.75;;;11.60;;
65863;SDS011;52639;51.180;20.460;2023-03-21T11:51:42;26.60;;;12.90;;
65863;SDS011;52639;51.180;20.460;2023-03-21T11:55:58;24.10;;;12.20;;
65863;SDS011;52639;51.180;20.460;2023-03-21T12:00:10;21.95;;;13.05;;
65863;SDS011;52639;51.180;20.460;2023-03-21T12:04:25;21.63;;;9.30;;
65863;SDS011;52639;51.180;20.460;2023-03-21T12:08:41;18.65;;;10.00;;
65863;SDS011;52639;51.180;20.460;2023-03-21T12:12:57;19.08;;;9.98;;
65863;SDS011;52639;51.180;20.460;2023-03-21T12:17:14;18.85;;;10.00;;
65863;SDS011;52639;51.180;20.460;2023-03-21T12:21:25;17.63;;;9.38;;
65863;SDS011;52639;51.180;20.460;2023-03-21T12:25:36;15.43;;;9.68;;
65863;SDS011;52639;51.180;20.460;2023-03-21T12:29:57;16.85;;;10.48;;
65863;SDS011;52639;51.180;20.460;2023-03-21T12:34:23;16.13;;;8.43;;
65863;SDS011;52639;51.180;20.460;2023-03-21T12:38:39;16.80;;;9.60;;
65863;SDS011;52639;51.180;20.460;2023-03-21T12:42:58;16.52;;;9.10;;
65863;SDS011;52639;51.180;20.460;2023-03-21T12:47:26;13.43;;;7.45;;
65863;SDS011;52639;51.180;20.460;2023-03-21T12:51:32;18.70;;;10.13;;
65863;SDS011;52639;51.180;20.460;2023-03-21T12:55:39;20.55;;;10.45;;
65863;SDS011;52639;51.180;20.460;2023-03-21T12:59:44;14.77;;;8.55;;
65863;SDS011;52639;51.180;20.460;2023-03-21T13:03:55;15.65;;;9.82;;
65863;SDS011;52639;51.180;20.460;2023-03-21T13:08:10;15.45;;;8.70;;
65863;SDS011;52639;51.180;20.460;2023-03-21T13:16:46;15.15;;;9.45;;
65863;SDS011;52639;51.180;20.460;2023-03-21T13:20:55;18.45;;;10.50;;
65863;SDS011;52639;51.180;20.460;2023-03-21T13:25:02;17.17;;;9.30;;
65863;SDS011;52639;51.180;20.460;2023-03-21T13:29:21;14.52;;;9.10;;
65863;SDS011;52639;51.180;20.460;2023-03-21T13:33:28;17.60;;;9.60;;
65863;SDS011;52639;51.180;20.460;2023-03-21T13:37:33;11.52;;;6.15;;
65863;SDS011;52639;51.180;20.460;2023-03-21T13:41:43;14.27;;;7.47;;
65863;SDS011;52639;51.180;20.460;2023-03-21T13:45:51;12.00;;;6.28;;
65863;SDS011;52639;51.180;20.460;2023-03-21T13:50:19;12.75;;;6.88;;
65863;SDS011;52639;51.180;20.460;2023-03-21T13:54:44;11.90;;;6.80;;
65863;SDS011;52639;51.180;20.460;2023-03-21T13:58:56;14.40;;;7.97;;
65863;SDS011;52639;51.180;20.460;2023-03-21T14:03:05;13.65;;;7.60;;
65863;SDS011;52639;51.180;20.460;2023-03-21T14:07:10;16.40;;;8.57;;
65863;SDS011;52639;51.180;20.460;2023-03-21T14:11:18;15.20;;;8.32;;
65863;SDS011;52639;51.180;20.460;2023-03-21T14:15:24;16.63;;;8.52;;
65863;SDS011;52639;51.180;20.460;2023-03-21T14:19:31;14.52;;;7.35;;
65863;SDS011;52639;51.180;20.460;2023-03-21T14:23:36;17.85;;;9.70;;
65863;SDS011;52639;51.180;20.460;2023-03-21T14:27:42;17.23;;;9.07;;
65863;SDS011;52639;51.180;20.460;2023-03-21T14:31:48;10.77;;;6.93;;
65863;SDS011;52639;51.180;20.460;2023-03-21T14:35:51;14.55;;;8.07;;
65863;SDS011;52639;51.180;20.460;2023-03-21T14:39:58;13.27;;;8.38;;
65863;SDS011;52639;51.180;20.460;2023-03-21T14:44:09;34.90;;;18.45;;
65863;SDS011;52639;51.180;20.460;2023-03-21T14:48:15;10.40;;;6.07;;
65863;SDS011;52639;51.180;20.460;2023-03-21T14:52:20;9.48;;;6.38;;
65863;SDS011;52639;51.180;20.460;2023-03-21T14:56:25;11.18;;;6.70;;
65863;SDS011;52639;51.180;20.460;2023-03-21T15:00:30;12.50;;;7.28;;
65863;SDS011;52639;51.180;20.460;2023-03-21T15:04:35;13.60;;;7.72;;
65863;SDS011;52639;51.180;20.460;2023-03-21T15:08:51;14.63;;;8.60;;
65863;SDS011;52639;51.180;20.460;2023-03-21T15:12:56;10.30;;;5.63;;
65863;SDS011;52639;51.180;20.460;2023-03-21T15:17:03;11.98;;;5.20;;
65863;SDS011;52639;51.180;20.460;2023-03-21T15:21:10;8.15;;;4.88;;
65863;SDS011;52639;51.180;20.460;2023-03-21T15:25:17;9.95;;;5.72;;
65863;SDS011;52639;51.180;20.460;2023-03-21T15:29:23;7.97;;;4.63;;
65863;SDS011;52639;51.180;20.460;2023-03-21T15:33:29;24.40;;;11.68;;
65863;SDS011;52639;51.180;20.460;2023-03-21T15:37:33;6.22;;;4.03;;
65863;SDS011;52639;51.180;20.460;2023-03-21T15:41:37;7.22;;;3.85;;
65863;SDS011;52639;51.180;20.460;2023-03-21T15:45:46;12.65;;;6.47;;
65863;SDS011;52639;51.180;20.460;2023-03-21T15:49:53;7.53;;;4.43;;
65863;SDS011;52639;51.180;20.460;2023-03-21T15:53:57;16.70;;;9.57;;
65863;SDS011;52639;51.180;20.460;2023-03-21T15:58:04;8.80;;;5.03;;
65863;SDS011;52639;51.180;20.460;2023-03-21T16:02:14;11.48;;;6.82;;
65863;SDS011;52639;51.180;20.460;2023-03-21T16:06:21;61.08;;;24.05;;
65863;SDS011;52639;51.180;20.460;2023-03-21T16:10:31;11.52;;;6.43;;
65863;SDS011;52639;51.180;20.460;2023-03-21T16:14:36;7.72;;;4.22;;
65863;SDS011;52639;51.180;20.460;2023-03-21T16:18:39;9.93;;;6.57;;
65863;SDS011;52639;51.180;20.460;2023-03-21T16:22:45;14.07;;;8.85;;
65863;SDS011;52639;51.180;20.460;2023-03-21T16:26:51;212.43;;;59.95;;
65863;SDS011;52639;51.180;20.460;2023-03-21T16:30:55;51.78;;;20.05;;
65863;SDS011;52639;51.180;20.460;2023-03-21T16:34:58;26.13;;;13.63;;
65863;SDS011;52639;51.180;20.460;2023-03-21T16:39:13;20.15;;;10.60;;
65863;SDS011;52639;51.180;20.460;2023-03-21T16:43:18;20.63;;;10.80;;
65863;SDS011;52639;51.180;20.460;2023-03-21T16:47:21;21.98;;;12.55;;
65863;SDS011;52639;51.180;20.460;2023-03-21T16:51:25;21.95;;;11.25;;
65863;SDS011;52639;51.180;20.460;2023-03-21T16:55:37;21.95;;;11.50;;
65863;SDS011;52639;51.180;20.460;2023-03-21T16:59:40;23.15;;;12.20;;
65863;SDS011;52639;51.180;20.460;2023-03-21T17:03:44;25.52;;;13.75;;
65863;SDS011;52639;51.180;20.460;2023-03-21T17:07:47;70.30;;;32.70;;
65863;SDS011;52639;51.180;20.460;2023-03-21T17:11:54;50.58;;;23.80;;
65863;SDS011;52639;51.180;20.460;2023-03-21T17:15:59;35.35;;;18.85;;
65863;SDS011;52639;51.180;20.460;2023-03-21T17:20:05;31.85;;;16.10;;
65863;SDS011;52639;51.180;20.460;2023-03-21T17:24:18;75.88;;;28.75;;
65863;SDS011;52639;51.180;20.460;2023-03-21T17:28:23;56.65;;;26.27;;
65863;SDS011;52639;51.180;20.460;2023-03-21T17:32:26;110.13;;;46.17;;
65863;SDS011;52639;51.180;20.460;2023-03-21T17:36:32;91.65;;;38.40;;
65863;SDS011;52639;51.180;20.460;2023-03-21T17:40:36;104.18;;;36.60;;
65863;SDS011;52639;51.180;20.460;2023-03-21T17:44:41;110.88;;;33.13;;
65863;SDS011;52639;51.180;20.460;2023-03-21T17:48:45;110.72;;;38.65;;
65863;SDS011;52639;51.180;20.460;2023-03-21T17:52:48;63.28;;;25.90;;
65863;SDS011;52639;51.180;20.460;2023-03-21T17:56:52;42.22;;;17.10;;
65863;SDS011;52639;51.180;20.460;2023-03-21T18:01:06;44.35;;;19.40;;
65863;SDS011;52639;51.180;20.460;2023-03-21T18:05:12;37.47;;;15.90;;
65863;SDS011;52639;51.180;20.460;2023-03-21T18:09:17;24.35;;;11.45;;
65863;SDS011;52639;51.180;20.460;2023-03-21T18:13:21;24.10;;;11.05;;
65863;SDS011;52639;51.180;20.460;2023-03-21T18:17:27;27.35;;;14.98;;
65863;SDS011;52639;51.180;20.460;2023-03-21T18:21:30;48.00;;;31.17;;
65863;SDS011;52639;51.180;20.460;2023-03-21T18:25:36;35.97;;;22.67;;
65863;SDS011;52639;51.180;20.460;2023-03-21T18:29:41;20.58;;;9.63;;
65863;SDS011;52639;51.180;20.460;2023-03-21T18:33:48;90.93;;;31.33;;
65863;SDS011;52639;51.180;20.460;2023-03-21T18:37:53;39.90;;;17.48;;
65863;SDS011;52639;51.180;20.460;2023-03-21T18:41:58;61.10;;;27.13;;
65863;SDS011;52639;51.180;20.460;2023-03-21T18:46:03;85.03;;;38.85;;
65863;SDS011;52639;51.180;20.460;2023-03-21T18:50:13;77.57;;;30.35;;
65863;SDS011;52639;51.180;20.460;2023-03-21T18:54:18;53.25;;;22.90;;
65863;SDS011;52639;51.180;20.460;2023-03-21T18:58:22;39.42;;;19.05;;
65863;SDS011;52639;51.180;20.460;2023-03-21T19:02:26;39.60;;;21.27;;
65863;SDS011;52639;51.180;20.460;2023-03-21T19:06:34;80.97;;;30.98;;
65863;SDS011;52639;51.180;20.460;2023-03-21T19:10:41;92.18;;;35.10;;
65863;SDS011;52639;51.180;20.460;2023-03-21T19:14:47;40.58;;;20.92;;
65863;SDS011;52639;51.180;20.460;2023-03-21T19:18:52;39.42;;;19.25;;
65863;SDS011;52639;51.180;20.460;2023-03-21T19:22:59;40.70;;;19.05;;
65863;SDS011;52639;51.180;20.460;2023-03-21T19:27:03;30.13;;;14.07;;
65863;SDS011;52639;51.180;20.460;2023-03-21T19:31:08;35.08;;;17.55;;
65863;SDS011;52639;51.180;20.460;2023-03-21T19:35:13;43.13;;;21.25;;
65863;SDS011;52639;51.180;20.460;2023-03-21T19:39:20;25.13;;;13.25;;
65863;SDS011;52639;51.180;20.460;2023-03-21T19:43:26;32.95;;;16.08;;
65863;SDS011;52639;51.180;20.460;2023-03-21T19:51:42;79.97;;;24.65;;
65863;SDS011;52639;51.180;20.460;2023-03-21T19:55:50;175.07;;;55.97;;
65863;SDS011;52639;51.180;20.460;2023-03-21T19:59:55;291.27;;;89.78;;
65863;SDS011;52639;51.180;20.460;2023-03-21T20:04:00;169.43;;;59.40;;
65863;SDS011;52639;51.180;20.460;2023-03-21T20:08:06;94.78;;;33.03;;
65863;SDS011;52639;51.180;20.460;2023-03-21T20:12:12;131.52;;;42.70;;
65863;SDS011;52639;51.180;20.460;2023-03-21T20:16:17;58.10;;;27.83;;
65863;SDS011;52639;51.180;20.460;2023-03-21T20:20:22;42.22;;;17.15;;
65863;SDS011;52639;51.180;20.460;2023-03-21T20:24:26;69.25;;;23.63;;
65863;SDS011;52639;51.180;20.460;2023-03-21T20:28:32;27.55;;;14.07;;
65863;SDS011;52639;51.180;20.460;2023-03-21T20:32:38;28.45;;;12.88;;
65863;SDS011;52639;51.180;20.460;2023-03-21T20:36:44;29.13;;;11.98;;
65863;SDS011;52639;51.180;20.460;2023-03-21T20:40:50;26.38;;;12.38;;
65863;SDS011;52639;51.180;20.460;2023-03-21T20:44:57;30.63;;;14.35;;
65863;SDS011;52639;51.180;20.460;2023-03-21T20:49:02;58.83;;;24.55;;
65863;SDS011;52639;51.180;20.460;2023-03-21T20:53:07;63.15;;;27.25;;
65863;SDS011;52639;51.180;20.460;2023-03-21T20:57:11;63.38;;;24.00;;
65863;SDS011;52639;51.180;20.460;2023-03-21T21:01:19;34.65;;;16.65;;
65863;SDS011;52639;51.180;20.460;2023-03-21T21:05:23;44.33;;;17.70;;
65863;SDS011;52639;51.180;20.460;2023-03-21T21:09:34;33.13;;;15.68;;
65863;SDS011;52639;51.180;20.460;2023-03-21T21:13:37;28.85;;;12.32;;
65863;SDS011;52639;51.180;20.460;2023-03-21T21:17:45;18.55;;;8.73;;
65863;SDS011;52639;51.180;20.460;2023-03-21T21:21:49;18.15;;;8.88;;
65863;SDS011;52639;51.180;20.460;2023-03-21T21:25:52;35.72;;;14.57;;
65863;SDS011;52639;51.180;20.460;2023-03-21T21:29:55;33.03;;;12.23;;
65863;SDS011;52639;51.180;20.460;2023-03-21T21:34:00;38.92;;;14.77;;
65863;SDS011;52639;51.180;20.460;2023-03-21T21:38:05;39.83;;;16.55;;
65863;SDS011;52639;51.180;20.460;2023-03-21T21:42:09;41.33;;;16.50;;
65863;SDS011;52639;51.180;20.460;2023-03-21T21:46:15;29.65;;;12.70;;
65863;SDS011;52639;51.180;20.460;2023-03-21T21:50:22;48.33;;;18.92;;
65863;SDS011;52639;51.180;20.460;2023-03-21T21:54:28;56.20;;;21.95;;
65863;SDS011;52639;51.180;20.460;2023-03-21T21:58:35;49.97;;;21.33;;
65863;SDS011;52639;51.180;20.460;2023-03-21T22:02:39;58.60;;;19.92;;
65863;SDS011;52639;51.180;20.460;2023-03-21T22:06:45;58.17;;;23.25;;
65863;SDS011;52639;51.180;20.460;2023-03-21T22:10:48;68.00;;;24.90;;
65863;SDS011;52639;51.180;20.460;2023-03-21T22:14:51;58.90;;;23.15;;
65863;SDS011;52639;51.180;20.460;2023-03-21T22:18:54;68.82;;;23.65;;
65863;SDS011;52639;51.180;20.460;2023-03-21T22:22:58;54.60;;;21.73;;
65863;SDS011;52639;51.180;20.460;2023-03-21T22:27:01;56.80;;;21.35;;
65863;SDS011;52639;51.180;20.460;2023-03-21T22:31:08;167.52;;;43.58;;
65863;SDS011;52639;51.180;20.460;2023-03-21T22:35:12;91.93;;;29.88;;
65863;SDS011;52639;51.180;20.460;2023-03-21T22:39:17;63.70;;;25.08;;
65863;SDS011;52639;51.180;20.460;2023-03-21T22:43:20;81.13;;;30.05;;
65863;SDS011;52639;51.180;20.460;2023-03-21T22:47:23;79.85;;;28.85;;
65863;SDS011;52639;51.180;20.460;2023-03-21T22:51:26;82.20;;;26.67;;
65863;SDS011;52639;51.180;20.460;2023-03-21T22:55:31;114.22;;;40.13;;
65863;SDS011;52639;51.180;20.460;2023-03-21T22:59:34;132.65;;;49.47;;
65863;SDS011;52639;51.180;20.460;2023-03-21T23:03:36;70.38;;;26.75;;
65863;SDS011;52639;51.180;20.460;2023-03-21T23:07:39;92.82;;;33.70;;
65863;SDS011;52639;51.180;20.460;2023-03-21T23:11:44;99.40;;;35.55;;
65863;SDS011;52639;51.180;20.460;2023-03-21T23:15:48;63.97;;;25.33;;
65863;SDS011;52639;51.180;20.460;2023-03-21T23:19:51;64.72;;;24.77;;
65863;SDS011;52639;51.180;20.460;2023-03-21T23:23:54;67.82;;;24.58;;
65863;SDS011;52639;51.180;20.460;2023-03-21T23:27:59;62.20;;;23.42;;
65863;SDS011;52639;51.180;20.460;2023-03-21T23:32:02;87.47;;;28.88;;
65863;SDS011;52639;51.180;20.460;2023-03-21T23:36:06;62.65;;;23.67;;
65863;SDS011;52639;51.180;20.460;2023-03-21T23:40:11;74.65;;;25.20;;
65863;SDS011;52639;51.180;20.460;2023-03-21T23:44:16;69.30;;;23.20;;
65863;SDS011;52639;51.180;20.460;2023-03-21T23:48:19;53.47;;;21.05;;
65863;SDS011;52639;51.180;20.460;2023-03-21T23:52:22;47.28;;;16.15;;
65863;SDS011;52639;51.180;20.460;2023-03-21T23:56:25;47.28;;;19.92;;
